Time;durP1;ratioP1;P1;durP2;ratioP2;P2;SDS_P1;SDS_P2;PMS_P1;PMS_P2;Temp;Humidity;BMP_temperature;BMP_pressure;BME280_temperature;BME280_humidity;BME280_pressure;Samples;Min_cycle;Max_cycle;Signal;HPM_P1;HPM_P2
2022/05/31 00:01:16;;;;;;;3.20;2.60;;;;;;;8.39;72.83;100794.94;4992087;28;20686;-81
2022/05/31 00:03:42;;;;;;;4.03;2.23;;;;;;;8.32;72.62;100789.94;4991286;28;20228;-81
2022/05/31 00:06:09;;;;;;;2.13;1.70;;;;;;;8.26;72.21;100787.56;4991710;28;20773;-80
2022/05/31 00:08:36;;;;;;;2.20;1.40;;;;;;;8.16;72.00;100783.69;4991173;28;20199;-80
2022/05/31 00:11:03;;;;;;;2.37;1.40;;;;;;;8.11;72.60;100783.03;4991635;28;20647;-81
2022/05/31 00:13:31;;;;;;;1.70;1.30;;;;;;;8.06;72.43;100782.41;4991262;28;20227;-81
2022/05/31 00:15:57;;;;;;;1.57;1.30;;;;;;;8.03;73.24;100782.59;4991533;28;20210;-81
2022/05/31 00:18:24;;;;;;;1.50;1.40;;;;;;;7.99;73.03;100781.03;4990593;28;20203;-80
2022/05/31 00:20:50;;;;;;;1.60;1.30;;;;;;;7.94;72.62;100785.69;4990793;28;20207;-80
2022/05/31 00:23:17;;;;;;;2.50;1.90;;;;;;;7.87;72.89;100784.31;4987664;28;20250;-81
2022/05/31 00:25:43;;;;;;;3.57;1.80;;;;;;;7.83;73.90;100782.72;4995626;28;20207;-81
2022/05/31 00:28:10;;;;;;;1.93;1.67;;;;;;;7.79;72.94;100774.06;4989756;28;20216;-81
2022/05/31 00:30:39;;;;;;;1.40;1.30;;;;;;;7.76;74.30;100776.00;4990952;28;20218;-80
2022/05/31 00:33:07;;;;;;;1.70;1.33;;;;;;;7.73;74.04;100777.00;4988185;28;20220;-81
2022/05/31 00:35:38;;;;;;;1.70;1.50;;;;;;;7.72;73.97;100785.91;4986547;28;20679;-81
2022/05/31 00:38:06;;;;;;;2.27;1.50;;;;;;;7.70;74.05;100784.28;4986518;28;20204;-81
2022/05/31 00:40:34;;;;;;;1.97;1.53;;;;;;;7.66;74.28;100781.78;4980094;28;20200;-82
2022/05/31 00:43:04;;;;;;;2.53;1.60;;;;;;;7.64;74.56;100785.44;4981601;28;20729;-82
2022/05/31 00:45:35;;;;;;;3.30;1.40;;;;;;;7.61;74.16;100781.13;4971500;28;20215;-81
2022/05/31 00:48:05;;;;;;;1.87;1.50;;;;;;;7.60;74.36;100781.22;4992214;28;20208;-81
2022/05/31 00:50:36;;;;;;;1.87;1.27;;;;;;;7.58;74.58;100778.63;4991325;28;20298;-81
2022/05/31 00:53:08;;;;;;;1.30;1.20;;;;;;;7.55;74.89;100775.25;4990864;28;20258;-80
2022/05/31 00:55:39;;;;;;;1.47;1.37;;;;;;;7.54;74.64;100779.69;4979383;28;20226;-81
2022/05/31 00:58:11;;;;;;;2.13;1.40;;;;;;;7.50;74.56;100780.81;4989998;28;20204;-81
2022/05/31 01:00:38;;;;;;;2.27;1.40;;;;;;;7.49;74.55;100778.22;4991002;28;20662;-81
2022/05/31 01:03:10;;;;;;;1.77;1.37;;;;;;;7.47;75.22;100780.09;4990705;28;20259;-81
2022/05/31 01:05:37;;;;;;;2.93;1.53;;;;;;;7.45;74.84;100782.81;4971439;28;20192;-80
2022/05/31 01:08:04;;;;;;;1.27;1.10;;;;;;;7.44;75.16;100780.22;4985861;28;20226;-81
2022/05/31 01:10:31;;;;;;;3.67;1.80;;;;;;;7.41;75.17;100778.59;4990597;28;20407;-80
2022/05/31 01:12:59;;;;;;;2.30;1.40;;;;;;;7.40;75.17;100789.25;4991024;28;20274;-79
2022/05/31 01:15:25;;;;;;;1.80;1.70;;;;;;;7.37;74.88;100786.75;4990951;28;20203;-79
2022/05/31 01:17:52;;;;;;;2.73;1.63;;;;;;;7.34;74.78;100785.13;4991501;28;20243;-79
2022/05/31 01:20:22;;;;;;;2.30;1.60;;;;;;;7.26;74.83;100774.03;4991051;28;20591;-80
2022/05/31 01:22:50;;;;;;;1.80;1.50;;;;;;;7.21;74.72;100781.31;4995718;28;20227;-80
2022/05/31 01:25:39;;;;;;;1.80;1.40;;;;;;;7.14;75.31;100774.63;4995942;28;20223;-80
2022/05/31 01:28:17;;;;;;;3.10;2.00;;;;;;;7.12;75.38;100779.13;4996054;28;20211;-80
2022/05/31 01:30:49;;;;;;;1.83;1.60;;;;;;;7.09;75.56;100776.63;4994770;28;20585;-79
2022/05/31 01:33:23;;;;;;;3.97;1.80;;;;;;;7.06;76.08;100780.25;4994921;28;20220;-80
2022/05/31 01:35:52;;;;;;;2.33;1.47;;;;;;;7.04;75.61;100783.91;4994979;28;20195;-80
2022/05/31 01:38:22;;;;;;;2.93;1.33;;;;;;;7.01;76.25;100781.41;4994300;28;20208;-80
2022/05/31 01:40:53;;;;;;;2.90;1.17;;;;;;;6.97;76.14;100786.88;4994809;28;20211;-79
2022/05/31 01:43:19;;;;;;;1.87;1.60;;;;;;;6.93;75.95;100777.34;4994204;28;20224;-80
2022/05/31 01:45:53;;;;;;;2.43;1.43;;;;;;;6.90;76.27;100781.91;4994480;28;20674;-80
2022/05/31 01:48:20;;;;;;;2.80;1.70;;;;;;;6.88;76.62;100783.75;4993686;28;20207;-80
2022/05/31 01:50:47;;;;;;;1.83;1.60;;;;;;;6.86;76.34;100775.88;4993990;28;20214;-80
2022/05/31 01:53:17;;;;;;;3.47;1.87;;;;;;;6.83;76.49;100775.16;4994234;28;20258;-79
2022/05/31 01:55:45;;;;;;;3.30;1.50;;;;;;;6.79;76.24;100779.75;4993746;28;20207;-80
2022/05/31 01:58:17;;;;;;;2.27;1.60;;;;;;;6.74;76.38;100776.47;4994613;28;20290;-80
2022/05/31 02:00:44;;;;;;;2.30;1.70;;;;;;;6.70;76.51;100779.31;4993785;28;20299;-80
2022/05/31 02:03:12;;;;;;;2.10;1.43;;;;;;;6.65;76.52;100771.56;4993931;28;20242;-80
2022/05/31 02:05:44;;;;;;;3.00;1.60;;;;;;;6.61;76.51;100767.38;4993739;28;20568;-79
2022/05/31 02:08:10;;;;;;;1.73;1.60;;;;;;;6.59;76.92;100766.56;4993793;28;20324;-79
2022/05/31 02:10:39;;;;;;;2.33;1.43;;;;;;;6.59;77.41;100772.72;4993996;28;20266;-80
2022/05/31 02:13:06;;;;;;;2.20;1.33;;;;;;;6.59;77.64;100769.22;4993318;28;20231;-80
2022/05/31 02:15:33;;;;;;;2.13;1.50;;;;;;;6.59;77.49;100774.50;4993684;28;20199;-81
2022/05/31 02:17:59;;;;;;;1.60;1.50;;;;;;;6.60;78.16;100778.88;4993632;28;20258;-80
2022/05/31 02:20:26;;;;;;;2.87;1.63;;;;;;;6.61;77.82;100770.00;4993755;28;20226;-79
2022/05/31 02:22:52;;;;;;;2.27;1.50;;;;;;;6.61;78.11;100777.94;4993387;28;20310;-79
2022/05/31 02:25:19;;;;;;;2.73;1.53;;;;;;;6.63;78.02;100772.59;4993583;28;20231;-79
2022/05/31 02:27:47;;;;;;;1.80;1.30;;;;;;;6.62;78.25;100771.72;4993879;28;20614;-79
2022/05/31 02:30:15;;;;;;;2.07;1.47;;;;;;;6.62;78.36;100771.72;4993445;28;20215;-80
2022/05/31 02:32:42;;;;;;;1.50;1.40;;;;;;;6.59;78.11;100777.16;4993270;28;20693;-80
2022/05/31 02:35:09;;;;;;;1.67;1.57;;;;;;;6.56;77.94;100777.28;4993376;28;20211;-80
2022/05/31 02:37:37;;;;;;;3.37;1.63;;;;;;;6.54;78.17;100773.84;4993846;28;20655;-80
2022/05/31 02:40:05;;;;;;;2.30;1.37;;;;;;;6.52;78.31;100779.22;4993599;28;20205;-80
2022/05/31 02:42:32;;;;;;;2.20;1.60;;;;;;;6.49;78.49;100776.69;4993789;28;20572;-80
2022/05/31 02:45:00;;;;;;;2.27;1.80;;;;;;;6.47;78.12;100772.38;4993692;28;20227;-81
2022/05/31 02:47:27;;;;;;;2.73;1.40;;;;;;;6.44;78.31;100777.84;4993841;28;20219;-81
2022/05/31 02:49:53;;;;;;;1.47;1.30;;;;;;;6.42;78.59;100775.25;4993813;28;20218;-80
2022/05/31 02:52:20;;;;;;;1.80;1.50;;;;;;;6.41;78.59;100778.84;4993484;28;20210;-80
2022/05/31 02:54:46;;;;;;;2.80;1.80;;;;;;;6.40;78.59;100773.59;4993068;28;20220;-81
2022/05/31 02:57:13;;;;;;;2.77;1.60;;;;;;;6.40;78.82;100776.25;4992970;28;20218;-81
2022/05/31 02:59:40;;;;;;;2.23;1.60;;;;;;;6.40;78.82;100768.31;4993269;28;20204;-81
2022/05/31 03:02:08;;;;;;;3.00;1.63;;;;;;;6.38;79.14;100772.81;4993337;28;20238;-79
2022/05/31 03:04:34;;;;;;;2.37;1.50;;;;;;;6.39;79.25;100766.59;4992312;28;20306;-81
2022/05/31 03:07:03;;;;;;;1.70;1.50;;;;;;;6.39;78.97;100769.25;4993069;28;20219;-79
2022/05/31 03:09:30;;;;;;;5.13;2.00;;;;;;;6.40;79.52;100770.97;4992284;28;20208;-80
2022/05/31 03:12:01;;;;;;;3.60;1.60;;;;;;;6.40;79.47;100769.19;4992494;28;20200;-80
2022/05/31 03:14:34;;;;;;;3.00;1.50;;;;;;;6.40;79.57;100771.81;4992854;28;20217;-79
2022/05/31 03:17:04;;;;;;;3.67;1.80;;;;;;;6.40;79.83;100773.59;4992798;28;20278;-80
2022/05/31 03:19:36;;;;;;;2.00;1.20;;;;;;;6.40;79.15;100765.66;4992798;28;20695;-80
2022/05/31 03:22:06;;;;;;;3.30;1.63;;;;;;;6.40;79.84;100770.97;4992710;28;20233;-80
2022/05/31 03:24:41;;;;;;;2.07;1.70;;;;;;;6.41;80.00;100765.59;4992418;28;20231;-79
2022/05/31 03:27:11;;;;;;;3.73;2.17;;;;;;;6.41;79.83;100764.75;4992319;28;20200;-80
2022/05/31 03:29:40;;;;;;;3.33;1.80;;;;;;;6.40;80.13;100769.19;4993238;28;20208;-79
2022/05/31 03:32:08;;;;;;;2.40;1.87;;;;;;;6.38;80.11;100764.88;4989627;28;20211;-80
2022/05/31 03:34:37;;;;;;;1.90;1.57;;;;;;;6.38;80.20;100764.88;4989512;28;20225;-80
2022/05/31 03:37:04;;;;;;;3.67;1.77;;;;;;;6.38;80.05;100767.53;4988695;28;20706;-81
2022/05/31 03:39:31;;;;;;;2.90;1.73;;;;;;;6.39;80.38;100766.59;4984712;28;20200;-81
2022/05/31 03:41:57;;;;;;;5.83;2.53;;;;;;;6.39;80.58;100770.09;4992596;28;20204;-80
2022/05/31 03:44:24;;;;;;;2.57;2.13;;;;;;;6.39;80.74;100761.31;4985606;28;20246;-79
2022/05/31 03:46:50;;;;;;;3.40;2.20;;;;;;;6.40;80.49;100770.97;4973560;28;20570;-80
2022/05/31 03:49:17;;;;;;;3.53;2.80;;;;;;;6.41;80.78;100759.47;4990852;28;20295;-80
2022/05/31 03:51:45;;;;;;;2.67;1.93;;;;;;;6.43;80.84;100762.91;4989698;28;20211;-80
2022/05/31 03:54:12;;;;;;;2.83;2.20;;;;;;;6.42;80.88;100763.81;4985814;28;20224;-80
2022/05/31 03:56:39;;;;;;;2.97;2.10;;;;;;;6.42;80.78;100763.81;4976911;28;20223;-80
2022/05/31 03:59:05;;;;;;;4.10;2.00;;;;;;;6.42;80.99;100762.03;4983802;28;20208;-81
2022/05/31 04:01:32;;;;;;;2.50;1.93;;;;;;;6.41;80.85;100756.81;4990246;28;20204;-80
2022/05/31 04:03:59;;;;;;;2.57;2.13;;;;;;;6.40;81.02;100761.25;4987851;28;20223;-79
2022/05/31 04:06:26;;;;;;;3.20;2.20;;;;;;;6.39;80.91;100764.81;4987169;28;20610;-80
2022/05/31 04:08:54;;;;;;;4.70;2.37;;;;;;;6.39;80.89;100761.31;4984099;28;20219;-79
2022/05/31 04:11:21;;;;;;;2.17;1.97;;;;;;;6.37;81.04;100757.88;4988528;28;20207;-80
2022/05/31 04:13:47;;;;;;;3.30;2.10;;;;;;;6.37;81.49;100760.50;4992939;28;20584;-80
2022/05/31 04:16:16;;;;;;;4.27;2.57;;;;;;;6.37;81.27;100756.09;4985039;28;20207;-80
2022/05/31 04:18:43;;;;;;;2.73;1.83;;;;;;;6.37;81.37;100756.09;4989417;28;20219;-80
2022/05/31 04:21:12;;;;;;;3.00;2.10;;;;;;;6.38;81.33;100767.53;4994198;28;20578;-80
2022/05/31 04:26:26;;;;;;;4.23;2.20;;;;;;;6.41;81.73;100762.97;4993164;28;20300;-81
2022/05/31 04:28:53;;;;;;;3.67;2.40;;;;;;;6.42;81.48;100755.88;4996622;28;20212;-81
2022/05/31 04:31:19;;;;;;;3.43;2.33;;;;;;;6.45;82.10;100759.22;4990412;28;20200;-81
2022/05/31 04:33:46;;;;;;;4.80;2.37;;;;;;;6.49;81.82;100759.97;4993772;28;20231;-81
2022/05/31 04:36:14;;;;;;;4.97;2.10;;;;;;;6.53;82.16;100762.41;4986986;28;20214;-80
2022/05/31 04:38:41;;;;;;;5.67;2.50;;;;;;;6.58;82.83;100765.72;4989706;28;20215;-81
2022/05/31 04:41:15;;;;;;;3.33;2.07;;;;;;;6.67;83.08;100766.22;4990555;28;20223;-80
2022/05/31 04:43:43;;;;;;;3.60;2.70;;;;;;;6.72;83.07;100762.44;4986153;28;20224;-80
2022/05/31 04:46:10;;;;;;;4.20;2.50;;;;;;;6.79;83.57;100763.88;4987566;28;20254;-80
2022/05/31 04:48:37;;;;;;;3.83;2.43;;;;;;;6.87;83.96;100763.50;4989558;28;20208;-80
2022/05/31 04:51:04;;;;;;;3.23;2.27;;;;;;;6.93;84.00;100766.75;4986294;28;20200;-79
2022/05/31 04:53:31;;;;;;;5.87;3.00;;;;;;;7.00;84.13;100772.59;4991924;28;20728;-80
2022/05/31 04:56:00;;;;;;;3.97;3.50;;;;;;;7.08;85.20;100764.31;4993801;28;21060;-80
2022/05/31 04:58:27;;;;;;;5.27;2.30;;;;;;;7.15;85.07;100757.81;4989950;28;20208;-80
2022/05/31 05:00:55;;;;;;;3.27;2.37;;;;;;;7.22;85.19;100764.50;4983607;28;20226;-80
2022/05/31 05:03:21;;;;;;;3.63;2.40;;;;;;;7.28;85.19;100762.44;4986572;28;20235;-80
2022/05/31 05:05:48;;;;;;;2.90;2.37;;;;;;;7.34;85.05;100757.78;4991874;28;20229;-81
2022/05/31 05:08:15;;;;;;;3.47;2.23;;;;;;;7.38;84.83;100757.53;4984123;28;20208;-81
2022/05/31 05:10:45;;;;;;;4.10;2.07;;;;;;;7.44;84.86;100762.53;4991612;28;20210;-80
2022/05/31 05:13:11;;;;;;;2.63;2.20;;;;;;;7.50;85.19;100761.41;4985443;28;20278;-80
2022/05/31 05:15:39;;;;;;;3.40;2.23;;;;;;;7.55;85.32;100757.56;4988394;28;20212;-80
2022/05/31 05:18:07;;;;;;;6.20;2.47;;;;;;;7.62;84.72;100759.00;4992159;28;20645;-80
2022/05/31 05:20:36;;;;;;;4.23;3.00;;;;;;;7.70;85.50;100755.13;4989626;28;20298;-80
2022/05/31 05:23:04;;;;;;;4.00;2.40;;;;;;;7.79;84.99;100754.66;4985017;28;20235;-81
2022/05/31 05:25:30;;;;;;;4.03;2.30;;;;;;;7.90;85.52;100754.94;4983155;28;20231;-81
2022/05/31 05:27:57;;;;;;;2.60;2.07;;;;;;;7.99;85.94;100749.19;4987383;28;20571;-80
2022/05/31 05:30:40;;;;;;;6.07;3.10;;;;;;;8.09;85.30;100753.06;4984935;28;20203;-80
2022/05/31 05:33:10;;;;;;;3.60;2.37;;;;;;;8.20;85.65;100750.75;4991075;28;20286;-81
2022/05/31 05:35:36;;;;;;;2.43;2.23;;;;;;;8.30;85.78;100757.28;4990286;28;20204;-80
2022/05/31 05:38:04;;;;;;;12.43;2.87;;;;;;;8.41;85.27;100755.91;4990037;28;20594;-80
2022/05/31 05:40:30;;;;;;;3.90;3.03;;;;;;;8.48;85.30;100754.63;4984587;28;20204;-83
2022/05/31 05:42:57;;;;;;;3.93;2.30;;;;;;;8.56;84.97;100761.25;4980774;28;20238;-82
2022/05/31 05:45:23;;;;;;;2.60;2.20;;;;;;;8.68;84.93;100762.38;4978177;28;20730;-81
2022/05/31 05:47:50;;;;;;;3.80;2.30;;;;;;;8.81;84.05;100759.94;4975829;28;20219;-82
2022/05/31 05:50:19;;;;;;;3.43;2.23;;;;;;;8.96;83.58;100765.25;4978345;28;20270;-82
2022/05/31 05:52:49;;;;;;;5.03;2.20;;;;;;;9.14;84.00;100762.53;4983337;28;20204;-82
2022/05/31 05:55:16;;;;;;;3.37;1.90;;;;;;;9.28;83.25;100758.19;4983200;28;20581;-81
2022/05/31 05:57:42;;;;;;;3.53;2.03;;;;;;;9.46;83.16;100758.06;4982533;28;20211;-81
2022/05/31 06:00:10;;;;;;;5.77;2.57;;;;;;;9.63;82.41;100750.00;4978572;28;20213;-81
2022/05/31 06:02:41;;;;;;;3.13;2.20;;;;;;;9.77;81.88;100759.81;4984834;28;20204;-82
2022/05/31 06:05:13;;;;;;;5.93;2.37;;;;;;;9.92;80.58;100761.59;4981299;28;20219;-81
2022/05/31 06:07:45;;;;;;;3.47;1.90;;;;;;;10.07;80.82;100758.00;4985258;28;20425;-81
2022/05/31 06:10:19;;;;;;;3.90;2.20;;;;;;;10.25;79.74;100761.41;4985036;28;20210;-81
2022/05/31 06:12:51;;;;;;;2.70;2.10;;;;;;;10.42;79.57;100762.09;4983393;28;20196;-82
2022/05/31 06:15:21;;;;;;;3.10;1.80;;;;;;;10.57;78.51;100759.47;4979636;28;20198;-82
2022/05/31 06:17:53;;;;;;;6.47;2.30;;;;;;;10.72;78.08;100762.03;4978330;28;20292;-81
2022/05/31 06:20:21;;;;;;;3.50;1.90;;;;;;;10.89;77.14;100760.97;4985022;28;20200;-81
2022/05/31 06:22:49;;;;;;;3.00;1.93;;;;;;;11.06;76.07;100746.59;4987303;28;20647;-81
2022/05/31 06:25:20;;;;;;;3.03;1.60;;;;;;;11.20;74.83;100757.22;4978188;28;20220;-81
2022/05/31 06:27:47;;;;;;;5.37;1.80;;;;;;;11.33;73.87;100752.81;4980113;28;20551;-81
2022/05/31 06:30:14;;;;;;;4.57;1.57;;;;;;;11.49;73.13;100744.66;4982411;28;20208;-81
2022/05/31 06:32:40;;;;;;;2.13;1.33;;;;;;;11.64;71.59;100743.66;4981663;28;20205;-81
2022/05/31 06:35:08;;;;;;;6.37;1.83;;;;;;;11.80;71.06;100740.88;4981526;28;20219;-80
2022/05/31 06:37:34;;;;;;;3.77;1.83;;;;;;;11.96;70.00;100738.00;4981261;28;20212;-82
2022/05/31 06:40:03;;;;;;;3.67;2.43;;;;;;;12.12;69.13;100742.22;4982915;28;20211;-80
2022/05/31 06:42:30;;;;;;;4.63;2.20;;;;;;;12.29;68.33;100746.38;4982346;28;20210;-81
2022/05/31 06:44:59;;;;;;;3.30;1.60;;;;;;;12.46;67.56;100743.41;4982861;28;20204;-82
2022/05/31 06:47:26;;;;;;;4.60;1.90;;;;;;;12.63;66.75;100741.38;4982891;28;20238;-81
2022/05/31 06:50:06;;;;;;;3.70;2.00;;;;;;;12.80;66.09;100741.88;4985256;28;20202;-82
2022/05/31 07:02:16;;;;;;;2.73;1.33;;;;;;;13.38;62.33;100734.19;4984267;28;20216;-83
2022/05/31 07:04:46;;;;;;;5.53;1.90;;;;;;;13.50;62.67;100726.09;4982743;28;20682;-82
2022/05/31 07:07:16;;;;;;;2.80;1.40;;;;;;;13.65;62.52;100720.56;4990533;28;20294;-82
2022/05/31 07:12:43;;;;;;;3.47;1.37;;;;;;;13.97;61.18;100728.84;4932519;29;20210;-83
2022/05/31 07:15:16;;;;;;;3.47;1.43;;;;;;;14.13;61.38;100727.56;4955573;28;20215;-83
2022/05/31 07:17:59;;;;;;;4.50;1.40;;;;;;;14.28;60.48;100722.84;4979711;28;20204;-83
2022/05/31 07:20:50;;;;;;;4.60;1.40;;;;;;;14.39;59.37;100725.53;4990808;28;20212;-82
2022/05/31 07:23:34;;;;;;;3.23;1.20;;;;;;;14.53;58.43;100721.78;4986927;28;20246;-82
2022/05/31 07:26:21;;;;;;;1.73;1.37;;;;;;;14.66;58.00;100719.88;4985979;28;20232;-80
2022/05/31 07:28:55;;;;;;;3.17;1.07;;;;;;;14.81;57.17;100721.34;4987487;28;20201;-82
2022/05/31 07:34:57;;;;;;;1.53;0.83;;;;;;;15.15;54.84;100718.59;4972743;28;20235;-82
2022/05/31 07:37:29;;;;;;;1.43;0.73;;;;;;;15.30;53.24;100720.03;4986919;28;20247;-82
2022/05/31 07:40:09;;;;;;;1.53;0.83;;;;;;;15.38;51.73;100714.91;4986201;28;20215;-83
2022/05/31 07:45:33;;;;;;;1.17;0.70;;;;;;;15.64;50.26;100710.06;4978677;28;20319;-82
2022/05/31 07:48:32;;;;;;;2.83;1.00;;;;;;;15.82;49.18;100696.94;4987999;28;20601;-83
2022/05/31 07:51:38;;;;;;;2.33;0.80;;;;;;;15.99;48.29;100696.34;4978001;28;20227;-82
2022/05/31 08:00:36;;;;;;;2.50;0.73;;;;;;;16.42;45.97;100690.84;4930194;29;20260;-82
2022/05/31 08:03:05;;;;;;;2.60;0.53;;;;;;;16.55;46.01;100691.47;4980881;28;20715;-82
2022/05/31 08:05:31;;;;;;;2.13;0.70;;;;;;;16.69;45.46;100676.81;4985136;28;20289;-81
2022/05/31 08:07:59;;;;;;;2.00;0.57;;;;;;;16.77;44.13;100684.22;4989616;28;20210;-82
2022/05/31 08:10:26;;;;;;;3.00;0.57;;;;;;;16.86;44.12;100684.25;4985788;28;20212;-81
2022/05/31 08:12:52;;;;;;;2.20;0.57;;;;;;;16.99;43.98;100681.34;4985368;28;20225;-81
2022/05/31 08:15:19;;;;;;;2.20;0.50;;;;;;;17.10;43.56;100675.84;4990945;28;20210;-81
2022/05/31 08:17:46;;;;;;;1.00;0.60;;;;;;;17.23;43.19;100676.41;4978290;28;20861;-81
2022/05/31 08:20:16;;;;;;;2.10;0.73;;;;;;;17.34;43.31;100670.94;4976412;28;20363;-82
2022/05/31 08:22:43;;;;;;;1.63;0.60;;;;;;;17.49;43.06;100667.81;4981204;28;20208;-81
2022/05/31 08:25:12;;;;;;;2.90;0.60;;;;;;;17.59;42.67;100663.25;4987569;28;20217;-80
2022/05/31 08:27:39;;;;;;;1.60;0.53;;;;;;;17.71;42.43;100666.72;4984561;28;20286;-82
2022/05/31 08:30:07;;;;;;;1.40;0.50;;;;;;;17.80;42.20;100661.31;4983865;28;20204;-82
2022/05/31 08:32:36;;;;;;;4.50;0.93;;;;;;;17.97;41.97;100657.03;4989566;28;20207;-83
2022/05/31 08:35:05;;;;;;;1.67;0.67;;;;;;;18.08;40.69;100656.88;4986392;28;20213;-83
2022/05/31 08:37:32;;;;;;;0.67;0.60;;;;;;;18.16;39.26;100657.00;4988092;28;20206;-83
2022/05/31 08:39:58;;;;;;;3.87;0.90;;;;;;;18.19;37.98;100650.47;4985549;28;20600;-81
2022/05/31 08:42:41;;;;;;;1.10;0.47;;;;;;;18.26;37.64;100654.28;4982503;28;20592;-81
2022/05/31 08:45:13;;;;;;;1.27;0.90;;;;;;;18.34;37.04;100655.25;4988230;28;20217;-82
2022/05/31 08:47:46;;;;;;;4.03;1.10;;;;;;;18.38;37.06;100642.31;4977817;28;20622;-82
2022/05/31 08:53:18;;;;;;;2.07;0.70;;;;;;;18.63;36.81;100638.16;4979419;28;20254;-82
2022/05/31 08:58:39;;;;;;;0.97;0.73;;;;;;;18.77;36.38;100631.41;4981477;28;20362;-82
2022/05/31 09:01:06;;;;;;;2.17;1.10;;;;;;;18.89;36.34;100639.13;4983647;28;20195;-82
2022/05/31 09:03:42;;;;;;;3.10;0.83;;;;;;;19.04;36.39;100636.75;4983320;28;20232;-81
2022/05/31 09:06:12;;;;;;;2.47;0.90;;;;;;;19.14;36.56;100629.47;4984709;28;20810;-82
2022/05/31 09:08:44;;;;;;;1.87;1.00;;;;;;;19.22;36.93;100629.53;4978136;28;20700;-83
2022/05/31 09:11:15;;;;;;;2.70;1.10;;;;;;;19.30;37.12;100635.03;4985084;28;20585;-82
2022/05/31 09:13:50;;;;;;;3.20;1.20;;;;;;;19.38;36.98;100632.38;4986238;28;20225;-82
2022/05/31 09:16:32;;;;;;;1.70;0.80;;;;;;;19.47;37.32;100629.78;4983134;28;20248;-82
2022/05/31 09:19:02;;;;;;;2.70;1.10;;;;;;;19.62;36.63;100634.50;4986022;28;20221;-81
2022/05/31 09:21:34;;;;;;;3.30;1.20;;;;;;;19.69;36.15;100626.63;4984659;28;20789;-82
2022/05/31 09:24:02;;;;;;;2.37;1.00;;;;;;;19.77;35.96;100626.69;4980869;28;20303;-82
2022/05/31 09:26:52;;;;;;;3.20;1.00;;;;;;;19.88;36.03;100629.16;4974956;28;20227;-82
2022/05/31 09:29:22;;;;;;;2.93;1.07;;;;;;;19.97;35.49;100622.78;4977333;28;20270;-82
2022/05/31 09:32:04;;;;;;;1.03;0.80;;;;;;;20.04;35.78;100623.88;4979675;28;20210;-82
2022/05/31 09:34:52;;;;;;;2.08;1.00;;;;;;;20.11;35.59;100630.31;4978242;28;20254;-82
2022/05/31 09:37:35;;;;;;;2.40;1.23;;;;;;;20.17;35.41;100625.28;4980951;28;20204;-82
2022/05/31 09:40:17;;;;;;;3.13;2.10;;;;;;;20.22;34.68;100626.50;4984194;28;20209;-81
2022/05/31 09:42:52;;;;;;;2.47;1.33;;;;;;;20.26;34.00;100617.03;4979606;28;20215;-82
2022/05/31 09:45:22;;;;;;;3.77;1.43;;;;;;;20.31;34.24;100622.84;4993401;28;20203;-82
2022/05/31 09:47:50;;;;;;;2.38;1.30;;;;;;;20.32;33.46;100620.97;4983738;28;20245;-82
2022/05/31 09:50:24;;;;;;;2.22;1.10;;;;;;;20.26;32.99;100619.75;4984354;28;20214;-84
2022/05/31 09:52:56;;;;;;;1.57;1.20;;;;;;;20.27;32.96;100623.31;4983666;28;20191;-82
2022/05/31 09:58:21;;;;;;;2.70;1.23;;;;;;;20.44;33.15;100614.28;4989971;28;20234;-83
2022/05/31 10:01:02;;;;;;;2.10;1.37;;;;;;;20.53;33.37;100618.75;4989885;28;20257;-83
2022/05/31 10:03:37;;;;;;;2.80;1.20;;;;;;;20.64;33.71;100604.06;4988056;28;20253;-81
2022/05/31 10:06:15;;;;;;;3.15;1.20;;;;;;;20.75;33.74;100592.97;4981698;28;20230;-82
2022/05/31 10:08:42;;;;;;;3.20;1.30;;;;;;;20.84;33.47;100589.25;4986121;28;20201;-82
2022/05/31 10:11:12;;;;;;;2.33;1.27;;;;;;;20.88;32.78;100589.78;4980262;28;20211;-82
2022/05/31 10:13:41;;;;;;;3.38;1.20;;;;;;;20.97;32.67;100586.91;4984419;28;20243;-83
2022/05/31 10:16:23;;;;;;;2.47;1.20;;;;;;;21.01;32.37;100576.63;4982511;28;20204;-82
2022/05/31 10:18:52;;;;;;;4.45;1.48;;;;;;;21.10;32.29;100576.47;4981015;28;20235;-83
2022/05/31 10:21:31;;;;;;;1.90;1.23;;;;;;;21.24;32.34;100574.16;4989257;28;20219;-82
2022/05/31 10:24:04;;;;;;;3.03;1.00;;;;;;;21.36;32.54;100573.66;4979854;28;20762;-82
2022/05/31 10:26:34;;;;;;;2.85;1.42;;;;;;;21.47;33.01;100569.78;4989006;28;20210;-82
2022/05/31 10:29:07;;;;;;;3.15;1.00;;;;;;;21.55;33.10;100572.47;4985608;28;20206;-83
2022/05/31 10:31:37;;;;;;;4.38;1.42;;;;;;;21.57;32.31;100564.16;4985298;28;20200;-82
2022/05/31 10:34:06;;;;;;;1.92;1.00;;;;;;;21.54;32.52;100561.78;4981626;28;20223;-82
2022/05/31 10:36:47;;;;;;;1.65;1.20;;;;;;;21.58;32.29;100566.72;4985864;28;20203;-82
2022/05/31 10:39:21;;;;;;;3.58;1.10;;;;;;;21.63;32.88;100568.91;4991622;28;20203;-83
2022/05/31 10:41:50;;;;;;;2.88;1.20;;;;;;;21.67;32.21;100568.41;4983568;28;20211;-82
2022/05/31 10:44:28;;;;;;;3.17;1.50;;;;;;;21.67;32.54;100571.13;4983416;28;20232;-83
2022/05/31 10:47:04;;;;;;;1.55;1.15;;;;;;;21.63;32.72;100566.22;4981111;28;20216;-82
2022/05/31 10:49:31;;;;;;;4.15;1.55;;;;;;;21.55;32.31;100558.91;4990488;28;20209;-82
2022/05/31 10:52:07;;;;;;;4.40;1.48;;;;;;;21.51;32.58;100560.25;4991739;28;20207;-81
2022/05/31 10:55:05;;;;;;;3.67;1.23;;;;;;;21.50;32.47;100557.75;4989815;28;20223;-82
2022/05/31 10:57:44;;;;;;;1.88;1.00;;;;;;;21.55;32.77;100563.47;4990908;28;20214;-84
2022/05/31 11:00:18;;;;;;;3.70;1.30;;;;;;;21.65;32.79;100554.19;4992162;28;20210;-82
2022/05/31 11:03:13;;;;;;;4.63;1.50;;;;;;;21.71;32.58;100556.19;4991523;28;20685;-82
2022/05/31 11:05:50;;;;;;;1.27;1.10;;;;;;;21.76;32.83;100552.97;4973909;28;20577;-82
2022/05/31 11:11:33;;;;;;;1.80;1.20;;;;;;;21.72;32.05;100549.75;4954289;28;20220;-82
2022/05/31 11:14:14;;;;;;;3.47;1.20;;;;;;;21.60;32.71;100548.41;4983363;28;20223;-82
2022/05/31 11:16:52;;;;;;;2.00;1.50;;;;;;;21.53;33.00;100544.69;4978565;28;20192;-83
2022/05/31 11:19:33;;;;;;;2.33;1.40;;;;;;;21.44;32.85;100549.28;4986917;28;20208;-83
2022/05/31 11:22:14;;;;;;;2.85;1.42;;;;;;;21.39;32.83;100542.66;4984663;28;20286;-84
2022/05/31 11:24:55;;;;;;;2.17;1.15;;;;;;;21.45;33.29;100534.72;4979585;28;20235;-82
2022/05/31 11:27:34;;;;;;;1.52;1.20;;;;;;;21.63;33.35;100542.66;4984221;28;20227;-81
2022/05/31 11:30:15;;;;;;;1.90;1.35;;;;;;;21.72;32.85;100547.03;4979718;28;20200;-82
2022/05/31 11:33:00;;;;;;;2.08;1.20;;;;;;;21.74;32.65;100545.00;4982823;28;20200;-81
2022/05/31 11:35:45;;;;;;;1.75;1.30;;;;;;;21.82;32.38;100541.44;4984826;28;20575;-82
2022/05/31 11:38:17;;;;;;;4.90;1.30;;;;;;;21.94;32.39;100539.22;4981283;28;20801;-82
2022/05/31 11:40:54;;;;;;;2.53;1.20;;;;;;;22.11;32.45;100536.31;4985937;28;20208;-83
2022/05/31 11:43:43;;;;;;;2.03;1.30;;;;;;;22.32;31.94;100534.88;4978365;28;20238;-82
2022/05/31 11:46:19;;;;;;;2.35;1.10;;;;;;;22.41;31.73;100540.09;4991459;28;20585;-82
2022/05/31 11:48:54;;;;;;;1.83;1.17;;;;;;;22.50;32.36;100540.91;4980381;28;20203;-83
2022/05/31 11:51:41;;;;;;;5.88;1.20;;;;;;;22.56;32.23;100533.94;4982846;28;20272;-82
2022/05/31 11:54:30;;;;;;;3.13;1.50;;;;;;;22.46;31.69;100536.84;4985567;28;20231;-82
2022/05/31 11:57:11;;;;;;;2.45;1.20;;;;;;;22.35;31.57;100532.66;4978405;28;20200;-82
2022/05/31 11:59:41;;;;;;;2.40;1.42;;;;;;;22.29;31.47;100527.09;4984550;28;20208;-81
2022/05/31 12:02:18;;;;;;;2.28;1.30;;;;;;;22.31;31.76;100519.63;4985517;28;20608;-82
2022/05/31 12:04:51;;;;;;;2.55;1.33;;;;;;;22.41;31.34;100521.09;4980113;28;20836;-80
2022/05/31 12:07:27;;;;;;;2.78;1.50;;;;;;;22.51;30.84;100507.31;4979865;28;20223;-82
2022/05/31 12:09:59;;;;;;;2.13;1.10;;;;;;;22.64;31.13;100502.16;4981963;28;20207;-82
2022/05/31 12:12:30;;;;;;;2.05;1.33;;;;;;;22.77;31.39;100505.16;4982934;28;20196;-81
2022/05/31 12:15:03;;;;;;;2.17;1.13;;;;;;;22.85;31.76;100507.81;4978635;28;20259;-81
2022/05/31 12:17:37;;;;;;;1.20;1.10;;;;;;;22.92;31.81;100507.13;4981425;28;20206;-82
2022/05/31 12:20:15;;;;;;;2.15;1.27;;;;;;;22.93;31.58;100501.47;4985161;28;20672;-83
2022/05/31 12:22:49;;;;;;;1.75;1.38;;;;;;;22.84;30.98;100503.41;4982861;28;20203;-81
2022/05/31 12:25:21;;;;;;;1.60;1.00;;;;;;;22.78;30.82;100495.13;4983932;28;20646;-83
2022/05/31 12:27:52;;;;;;;2.90;1.35;;;;;;;22.73;31.28;100487.53;4990912;28;20686;-81